Thunder radar more information blitzortung!


Radar de pluja more information rain snow radar


Visita la nostra xarxa de llocs de meteo:

Template documentation
and downloads

And another site



No particular awareness of the weather is required.    There are no Weather-warnings

Pagina Historial Weather Underground text

Diari Resum May 24, 2017 Unitats:  Mètric    Imperial   Tant
« Previous Dia
SegĂźent Dia »
Diari Setmana Mensual Anual Personalitzada
  Maxima: Minima: Media:
Temperatura: 32.3 °C 15.4 °C 26.1 °C
Punt de rosada: 15.2 °C 5.8 °C 9.8 °C
Humitat: 70 % 26 % 38 %
Wind Speed: 24.1 km/h 0.0 km/h 8.5 km/h
RĂ fegues de vent: 24.1 km/h - -
Vent:- - SSW
Pression baro: 1021.9 hPa 1014.8 hPa -
Precipitacions: 0.0 mm    
Historical Graphs
 
 
Dades de taula per May 24, 2017
Temps Temperatura Punt de rosada Pression baro Vent Wind Speed RĂ fegues de vent Humitat Rainfall Rate (Hourly)
00:02 19.0 °C 10.8 °C 1019.9 hPa SW 3.7 km/h 3.7 km/h 59 % 0.0 mm
00:05 16.6 °C 11.1 °C 1019.9 hPa Calm     70 % 0.0 mm
00:07 18.8 °C 10.9 °C 1018.8 hPa SW 3.7 km/h 3.7 km/h 60 % 0.0 mm
00:12 18.8 °C 10.9 °C 1018.8 hPa WSW 3.7 km/h 3.7 km/h 60 % 0.0 mm
00:15 16.6 °C 11.1 °C 1019.9 hPa Calm     70 % 0.0 mm
00:25 16.7 °C 11.2 °C 1019.9 hPa Calm   1.6 km/h 70 % 0.0 mm
00:35 16.6 °C 11.1 °C 1019.9 hPa Calm     70 % 0.0 mm
00:45 16.7 °C 11.0 °C 1019.9 hPa North 1.6 km/h 3.2 km/h 69 % 0.0 mm
00:55 16.5 °C 10.8 °C 1019.9 hPa Calm     69 % 0.0 mm
01:05 16.4 °C 10.7 °C 1019.9 hPa Calm     69 % 0.0 mm
01:15 16.1 °C 10.4 °C 1020.9 hPa Calm   3.2 km/h 69 % 0.0 mm
01:25 15.7 °C 10.0 °C 1020.9 hPa SSW 1.6 km/h 1.6 km/h 69 % 0.0 mm
01:35 15.6 °C 9.9 °C 1020.9 hPa SW 1.6 km/h 3.2 km/h 69 % 0.0 mm
01:45 15.4 °C 9.7 °C 1020.9 hPa SW 3.2 km/h 4.8 km/h 69 % 0.0 mm
01:55 15.4 °C 9.7 °C 1020.9 hPa SW 3.2 km/h 4.8 km/h 69 % 0.0 mm
02:05 15.6 °C 9.9 °C 1020.9 hPa Calm   3.2 km/h 69 % 0.0 mm
02:15 16.0 °C 10.3 °C 1020.9 hPa WSW 1.6 km/h 3.2 km/h 69 % 0.0 mm
02:25 16.4 °C 10.7 °C 1020.9 hPa Calm   3.2 km/h 69 % 0.0 mm
02:35 17.4 °C 11.4 °C 1020.9 hPa Calm     68 % 0.0 mm
02:45 18.0 °C 11.6 °C 1020.9 hPa Calm     66 % 0.0 mm
02:55 17.9 °C 11.2 °C 1021.9 hPa West 1.6 km/h 3.2 km/h 65 % 0.0 mm
03:05 18.1 °C 11.2 °C 1021.9 hPa SW 1.6 km/h 3.2 km/h 64 % 0.0 mm
03:15 18.5 °C 11.6 °C 1020.9 hPa SW 1.6 km/h 3.2 km/h 64 % 0.0 mm
03:25 19.0 °C 11.6 °C 1021.9 hPa SW 3.2 km/h 3.2 km/h 62 % 0.0 mm
03:35 19.3 °C 11.8 °C 1021.9 hPa SW 1.6 km/h 3.2 km/h 62 % 0.0 mm
03:45 19.7 °C 12.2 °C 1020.9 hPa SW 1.6 km/h 3.2 km/h 62 % 0.0 mm
03:55 20.0 °C 12.0 °C 1021.9 hPa SW 1.6 km/h 3.2 km/h 60 % 0.0 mm
04:05 21.0 °C 12.7 °C 1021.9 hPa SSW 1.6 km/h 4.8 km/h 59 % 0.0 mm
04:15 21.7 °C 13.1 °C 1021.9 hPa NE 1.6 km/h 3.2 km/h 58 % 0.0 mm
04:25 22.2 °C 13.3 °C 1021.9 hPa Calm   6.4 km/h 57 % 0.0 mm
04:35 22.6 °C 13.4 °C 1021.9 hPa Calm   3.2 km/h 56 % 0.0 mm
04:45 23.1 °C 13.6 °C 1020.9 hPa ENE 3.2 km/h 4.8 km/h 55 % 0.0 mm
04:55 23.5 °C 13.4 °C 1021.9 hPa East 1.6 km/h 4.8 km/h 53 % 0.0 mm
05:05 23.8 °C 13.3 °C 1021.9 hPa ESE 1.6 km/h 3.2 km/h 52 % 0.0 mm
05:15 24.8 °C 14.3 °C 1021.9 hPa East 1.6 km/h 3.2 km/h 52 % 0.0 mm
05:25 25.0 °C 13.8 °C 1021.9 hPa ENE 3.2 km/h 4.8 km/h 50 % 0.0 mm
05:35 25.5 °C 14.3 °C 1021.9 hPa East 1.6 km/h 4.8 km/h 50 % 0.0 mm
05:45 26.1 °C 14.6 °C 1021.9 hPa East 1.6 km/h 3.2 km/h 49 % 0.0 mm
10:52 26.1 °C 14.2 °C 1021.9 hPa ENE 5.6 km/h 5.6 km/h 48 % 0.0 mm
10:57 26.4 °C 14.5 °C 1021.9 hPa SE 3.9 km/h 3.9 km/h 48 % 0.0 mm
11:02 26.9 °C 14.9 °C 1021.9 hPa SW 3.7 km/h 3.7 km/h 48 % 0.0 mm
11:07 27.2 °C 14.6 °C 1020.9 hPa South 5.6 km/h 5.6 km/h 46 % 0.0 mm
11:12 27.9 °C 15.2 °C 1020.9 hPa WSW 5.6 km/h 5.6 km/h 46 % 0.0 mm
11:17 28.2 °C 15.2 °C 1020.9 hPa ESE 3.7 km/h 3.7 km/h 45 % 0.0 mm
11:22 28.4 °C 14.9 °C 1019.9 hPa ESE 3.7 km/h 3.7 km/h 44 % 0.0 mm
11:27 28.1 °C 14.7 °C 1019.9 hPa West 3.7 km/h 3.7 km/h 44 % 0.0 mm
11:32 27.8 °C 14.1 °C 1019.9 hPa WSW 7.4 km/h 7.4 km/h 43 % 0.0 mm
11:37 28.2 °C 14.1 °C 1019.9 hPa ENE 3.7 km/h 3.7 km/h 42 % 0.0 mm
11:42 28.2 °C 14.1 °C 1019.9 hPa SW 5.6 km/h 5.6 km/h 42 % 0.0 mm
11:47 29.1 °C 14.5 °C 1019.9 hPa SSW 5.6 km/h 5.6 km/h 41 % 0.0 mm
11:52 29.4 °C 13.6 °C 1018.8 hPa NE 9.3 km/h 9.3 km/h 38 % 0.0 mm
11:57 28.7 °C 13.4 °C 1018.8 hPa South 3.9 km/h 3.9 km/h 39 % 0.0 mm
12:02 29.4 °C 13.6 °C 1018.8 hPa ENE 3.7 km/h   38 % 0.0 mm
12:07 29.5 °C 13.7 °C 1018.8 hPa West 3.7 km/h 3.7 km/h 38 % 0.0 mm
12:12 29.5 °C 12.8 °C 1018.8 hPa ENE 5.6 km/h 5.6 km/h 36 % 0.0 mm
12:17 29.9 °C 14.1 °C 1018.8 hPa ESE 3.7 km/h 3.7 km/h 38 % 0.0 mm
12:22 30.1 °C 14.2 °C 1018.8 hPa West 7.4 km/h 7.4 km/h 38 % 0.0 mm
12:27 30.1 °C 13.8 °C 1018.8 hPa WSW 9.3 km/h 9.3 km/h 37 % 0.0 mm
12:32 30.2 °C 13.5 °C 1018.8 hPa SSW 5.6 km/h 5.6 km/h 36 % 0.0 mm
12:37 31.1 °C 14.3 °C 1017.8 hPa SW 7.4 km/h 7.4 km/h 36 % 0.0 mm
12:42 31.1 °C 14.3 °C 1017.8 hPa SW 4.2 km/h 4.2 km/h 36 % 0.0 mm
12:47 31.4 °C 14.1 °C 1017.8 hPa SW 7.4 km/h 7.4 km/h 35 % 0.0 mm
12:52 31.0 °C 13.3 °C 1017.8 hPa West 7.4 km/h 7.4 km/h 34 % 0.0 mm
12:57 31.4 °C 13.7 °C 1017.8 hPa South 5.6 km/h 5.6 km/h 34 % 0.0 mm
13:02 31.3 °C 13.1 °C 1017.8 hPa South 7.4 km/h 7.4 km/h 33 % 0.0 mm
13:07 31.7 °C 13.4 °C 1017.8 hPa NE 3.7 km/h 3.7 km/h 33 % 0.0 mm
13:12 30.9 °C 12.8 °C 1017.8 hPa SSE 5.3 km/h 5.3 km/h 33 % 0.0 mm
13:17 31.0 °C 12.4 °C 1017.8 hPa SSE 5.6 km/h 5.6 km/h 32 % 0.0 mm
13:22 31.4 °C 13.2 °C 1017.8 hPa WSW 7.4 km/h 7.4 km/h 33 % 0.0 mm
13:27 31.2 °C 12.6 °C 1017.8 hPa West 11.1 km/h 11.1 km/h 32 % 0.0 mm
13:32 30.3 °C 11.8 °C 1017.8 hPa ESE 9.3 km/h 9.3 km/h 32 % 0.0 mm
13:37 30.4 °C 11.8 °C 1017.8 hPa NE 4.7 km/h 4.7 km/h 32 % 0.0 mm
13:38 30.3 °C 11.8 °C 1017.8 hPa ENE 3.9 km/h 3.9 km/h 32 % 0.0 mm
13:43 30.9 °C 12.3 °C 1017.8 hPa SW 5.6 km/h 5.6 km/h 32 % 0.0 mm
13:48 31.1 °C 12.0 °C 1017.8 hPa SSE 3.7 km/h 3.7 km/h 31 % 0.0 mm
13:53 31.2 °C 12.6 °C 1017.8 hPa SSE 5.6 km/h 5.6 km/h 32 % 0.0 mm
13:58 31.5 °C 12.3 °C 1017.8 hPa SSW 7.4 km/h 7.4 km/h 31 % 0.0 mm
14:03 31.7 °C 12.0 °C 1017.8 hPa SSE 3.7 km/h 3.7 km/h 30 % 0.0 mm
14:08 31.2 °C 11.6 °C 1017.8 hPa SSW 7.4 km/h 7.4 km/h 30 % 0.0 mm
14:13 31.6 °C 12.4 °C 1017.8 hPa SW 9.3 km/h 9.3 km/h 31 % 0.0 mm
14:18 31.8 °C 12.6 °C 1017.8 hPa North 7.4 km/h 7.4 km/h 31 % 0.0 mm
14:23 32.3 °C 12.5 °C 1017.8 hPa West 6.1 km/h 6.1 km/h 30 % 0.0 mm
14:28 32.0 °C 12.3 °C 1017.8 hPa West 16.7 km/h 16.7 km/h 30 % 0.0 mm
14:33 32.0 °C 11.7 °C 1017.8 hPa SSW 14.8 km/h 14.8 km/h 29 % 0.0 mm
14:38 32.0 °C 11.7 °C 1018.8 hPa South 16.9 km/h 16.9 km/h 29 % 0.0 mm
14:43 32.1 °C 11.8 °C 1018.8 hPa South 13.0 km/h 13.0 km/h 29 % 0.0 mm
14:48 31.8 °C 11.6 °C 1018.8 hPa SW 9.3 km/h 9.3 km/h 29 % 0.0 mm
14:53 31.3 °C 10.6 °C 1017.8 hPa SW 18.5 km/h 18.5 km/h 28 % 0.0 mm
14:58 31.2 °C 10.5 °C 1017.8 hPa SSW 14.8 km/h 14.8 km/h 28 % 0.0 mm
15:03 31.5 °C 10.8 °C 1017.8 hPa WSW 13.0 km/h 13.0 km/h 28 % 0.0 mm
15:08 31.2 °C 10.5 °C 1017.8 hPa SSW 9.3 km/h 9.3 km/h 28 % 0.0 mm
15:13 30.6 °C 9.4 °C 1017.8 hPa South 19.5 km/h 19.5 km/h 27 % 0.0 mm
15:18 30.5 °C 9.4 °C 1017.8 hPa SW 20.4 km/h 20.4 km/h 27 % 0.0 mm
15:23 30.5 °C 9.4 °C 1016.8 hPa SW 13.0 km/h 13.0 km/h 27 % 0.0 mm
15:28 30.1 °C 9.1 °C 1016.8 hPa SW 24.1 km/h 24.1 km/h 27 % 0.0 mm
15:33 30.3 °C 9.2 °C 1016.8 hPa South 16.7 km/h 16.7 km/h 27 % 0.0 mm
15:38 30.0 °C 8.4 °C 1017.8 hPa WSW 20.4 km/h 20.4 km/h 26 % 0.0 mm
15:43 30.0 °C 8.9 °C 1017.8 hPa South 20.4 km/h 20.4 km/h 27 % 0.0 mm
15:48 30.1 °C 9.1 °C 1017.8 hPa SW 20.4 km/h 20.4 km/h 27 % 0.0 mm
15:53 30.2 °C 9.1 °C 1016.8 hPa SSW 16.7 km/h 16.7 km/h 27 % 0.0 mm
15:58 30.6 °C 9.4 °C 1016.8 hPa SSW 5.8 km/h 5.8 km/h 27 % 0.0 mm
16:03 30.6 °C 9.4 °C 1016.8 hPa SW 13.0 km/h 13.0 km/h 27 % 0.0 mm
16:08 30.3 °C 9.2 °C 1016.8 hPa SW 20.4 km/h 20.4 km/h 27 % 0.0 mm
16:13 30.3 °C 9.2 °C 1016.8 hPa West 13.0 km/h 13.0 km/h 27 % 0.0 mm
16:18 30.7 °C 9.6 °C 1016.8 hPa WSW 16.9 km/h 16.9 km/h 27 % 0.0 mm
16:23 30.9 °C 9.7 °C 1015.8 hPa South 10.0 km/h 10.0 km/h 27 % 0.0 mm
16:28 30.7 °C 9.6 °C 1015.8 hPa WSW 13.0 km/h 13.0 km/h 27 % 0.0 mm
16:33 31.0 °C 9.8 °C 1015.8 hPa SW 7.4 km/h 7.4 km/h 27 % 0.0 mm
16:38 30.7 °C 9.6 °C 1015.8 hPa SSW 13.0 km/h 13.0 km/h 27 % 0.0 mm
16:43 30.7 °C 9.6 °C 1015.8 hPa SSW 17.2 km/h 17.2 km/h 27 % 0.0 mm
16:48 30.5 °C 8.8 °C 1015.8 hPa South 16.7 km/h 16.7 km/h 26 % 0.0 mm
16:53 30.7 °C 9.6 °C 1015.8 hPa WSW 9.3 km/h 9.3 km/h 27 % 0.0 mm
16:58 30.3 °C 8.7 °C 1015.8 hPa SW 14.8 km/h 14.8 km/h 26 % 0.0 mm
17:03 30.3 °C 8.7 °C 1015.8 hPa SSW 14.8 km/h 14.8 km/h 26 % 0.0 mm
17:08 30.5 °C 8.8 °C 1015.8 hPa SW 15.1 km/h 15.1 km/h 26 % 0.0 mm
17:13 30.3 °C 8.7 °C 1015.8 hPa SSW 14.8 km/h 14.8 km/h 26 % 0.0 mm
17:18 30.4 °C 8.7 °C 1015.8 hPa SSE 13.0 km/h 13.0 km/h 26 % 0.0 mm
17:23 30.6 °C 8.9 °C 1014.8 hPa WSW 9.3 km/h 9.3 km/h 26 % 0.0 mm
17:28 30.2 °C 8.6 °C 1014.8 hPa WSW 16.7 km/h 16.7 km/h 26 % 0.0 mm
17:33 29.9 °C 8.9 °C 1014.8 hPa ESE 12.6 km/h 12.6 km/h 27 % 0.0 mm
17:39 30.0 °C 8.4 °C 1015.8 hPa SW 16.7 km/h 16.7 km/h 26 % 0.0 mm
17:44 29.7 °C 8.2 °C 1015.8 hPa SSW 18.5 km/h 18.5 km/h 26 % 0.0 mm
17:49 29.6 °C 8.1 °C 1015.8 hPa SW 13.0 km/h 13.0 km/h 26 % 0.0 mm
17:54 29.5 °C 8.6 °C 1015.8 hPa WSW 9.3 km/h 9.3 km/h 27 % 0.0 mm
17:59 29.5 °C 8.6 °C 1015.8 hPa SW 16.7 km/h 16.7 km/h 27 % 0.0 mm
18:00 29.6 °C 8.6 °C 1015.8 hPa SSW 11.1 km/h 11.1 km/h 27 % 0.0 mm
18:05 29.4 °C 8.4 °C 1015.8 hPa SE 14.8 km/h 14.8 km/h 27 % 0.0 mm
18:10 29.2 °C 8.3 °C 1015.8 hPa West 14.8 km/h 14.8 km/h 27 % 0.0 mm
18:15 29.0 °C 8.1 °C 1015.8 hPa SSW 16.7 km/h 16.7 km/h 27 % 0.0 mm
18:20 28.9 °C 8.6 °C 1015.8 hPa WSW 22.2 km/h 22.2 km/h 28 % 0.0 mm
18:25 28.4 °C 8.1 °C 1015.8 hPa WSW 11.1 km/h 11.1 km/h 28 % 0.0 mm
18:30 28.4 °C 8.1 °C 1015.8 hPa South 9.3 km/h 9.3 km/h 28 % 0.0 mm
18:35 28.3 °C 8.1 °C 1015.8 hPa SW 15.6 km/h 15.6 km/h 28 % 0.0 mm
18:40 28.2 °C 8.5 °C 1015.8 hPa SW 11.1 km/h 11.1 km/h 29 % 0.0 mm
18:45 27.8 °C 7.6 °C 1015.8 hPa WSW 14.8 km/h 14.8 km/h 28 % 0.0 mm
18:50 27.4 °C 7.3 °C 1015.8 hPa SW 22.2 km/h 22.2 km/h 28 % 0.0 mm
18:55 27.0 °C 6.9 °C 1015.8 hPa South 20.4 km/h 20.4 km/h 28 % 0.0 mm
19:00 27.1 °C 7.6 °C 1015.8 hPa SW 14.5 km/h 14.5 km/h 29 % 0.0 mm
19:05 26.9 °C 7.3 °C 1015.8 hPa SSW 20.4 km/h 20.4 km/h 29 % 0.0 mm
19:10 26.7 °C 6.7 °C 1015.8 hPa SSW 14.8 km/h 14.8 km/h 28 % 0.0 mm
19:15 26.7 °C 7.2 °C 1015.8 hPa WSW 20.4 km/h 20.4 km/h 29 % 0.0 mm
19:20 26.7 °C 7.2 °C 1015.8 hPa SW 13.0 km/h 13.0 km/h 29 % 0.0 mm
19:25 26.5 °C 7.0 °C 1015.8 hPa WSW 16.7 km/h 16.7 km/h 29 % 0.0 mm
19:30 26.5 °C 7.0 °C 1015.8 hPa SW 18.5 km/h 18.5 km/h 29 % 0.0 mm
19:35 26.3 °C 6.8 °C 1015.8 hPa SW 13.7 km/h 13.7 km/h 29 % 0.0 mm
19:40 26.3 °C 6.8 °C 1015.8 hPa South 14.8 km/h 14.8 km/h 29 % 0.0 mm
19:45 26.2 °C 6.8 °C 1015.8 hPa SW 18.5 km/h 18.5 km/h 29 % 0.0 mm
19:50 26.1 °C 6.7 °C 1015.8 hPa SW 13.0 km/h 13.0 km/h 29 % 0.0 mm
19:55 26.1 °C 6.7 °C 1016.8 hPa WSW 13.0 km/h 13.0 km/h 29 % 0.0 mm
20:00 25.9 °C 6.5 °C 1016.8 hPa SSW 16.7 km/h 16.7 km/h 29 % 0.0 mm
20:05 25.9 °C 6.5 °C 1016.8 hPa SW 13.0 km/h 13.0 km/h 29 % 0.0 mm
20:10 25.8 °C 6.9 °C 1015.8 hPa South 11.1 km/h 11.1 km/h 30 % 0.0 mm
20:15 25.7 °C 6.8 °C 1015.8 hPa SW 14.8 km/h 14.8 km/h 30 % 0.0 mm
20:20 25.6 °C 6.7 °C 1015.8 hPa SSW 11.1 km/h 11.1 km/h 30 % 0.0 mm
20:25 25.5 °C 6.7 °C 1015.8 hPa SW 9.3 km/h 9.3 km/h 30 % 0.0 mm
20:30 25.3 °C 6.4 °C 1015.8 hPa SSW 14.8 km/h 14.8 km/h 30 % 0.0 mm
20:35 25.2 °C 6.4 °C 1015.8 hPa SW 11.1 km/h 11.1 km/h 30 % 0.0 mm
20:40 25.1 °C 6.3 °C 1015.8 hPa SW 8.7 km/h 8.7 km/h 30 % 0.0 mm
20:45 25.0 °C 6.2 °C 1015.8 hPa SSW 11.1 km/h 11.1 km/h 30 % 0.0 mm
20:50 24.8 °C 6.5 °C 1015.8 hPa WSW 9.3 km/h 9.3 km/h 31 % 0.0 mm
20:55 24.7 °C 6.4 °C 1015.8 hPa SSW 9.5 km/h 9.5 km/h 31 % 0.0 mm
21:00 24.6 °C 6.3 °C 1015.8 hPa SW 9.3 km/h 9.3 km/h 31 % 0.0 mm
21:05 24.5 °C 6.3 °C 1015.8 hPa SSW 7.4 km/h 7.4 km/h 31 % 0.0 mm
21:10 24.3 °C 6.6 °C 1015.8 hPa SW 8.7 km/h 8.7 km/h 32 % 0.0 mm
21:15 24.2 °C 6.4 °C 1015.8 hPa WSW 13.0 km/h 13.0 km/h 32 % 0.0 mm
21:20 24.1 °C 6.4 °C 1015.8 hPa SW 13.0 km/h 13.0 km/h 32 % 0.0 mm
21:25 23.9 °C 6.2 °C 1015.8 hPa SSW 13.7 km/h 13.7 km/h 32 % 0.0 mm
21:30 23.8 °C 6.1 °C 1015.8 hPa SSW 9.3 km/h 9.3 km/h 32 % 0.0 mm
21:35 23.7 °C 6.0 °C 1015.8 hPa SW 9.3 km/h 9.3 km/h 32 % 0.0 mm
21:40 23.5 °C 5.8 °C 1015.8 hPa SW 7.4 km/h 7.4 km/h 32 % 0.0 mm
21:45 23.4 °C 6.2 °C 1015.8 hPa SW 7.4 km/h 7.4 km/h 33 % 0.0 mm
21:50 23.3 °C 6.1 °C 1015.8 hPa WSW 5.6 km/h 5.6 km/h 33 % 0.0 mm
21:55 23.1 °C 5.9 °C 1015.8 hPa SW 5.6 km/h 5.6 km/h 33 % 0.0 mm
22:00 23.0 °C 5.8 °C 1015.8 hPa SW 3.7 km/h 3.7 km/h 33 % 0.0 mm
22:05 22.9 °C 6.2 °C 1015.8 hPa West 5.6 km/h 5.6 km/h 34 % 0.0 mm
22:10 22.8 °C 6.6 °C 1015.8 hPa WSW 1.9 km/h 1.9 km/h 35 % 0.0 mm
22:15 22.7 °C 6.4 °C 1015.8 hPa NW 3.7 km/h 3.7 km/h 35 % 0.0 mm
22:20 22.7 °C 6.4 °C 1015.8 hPa WSW 3.7 km/h 3.7 km/h 35 % 0.0 mm
22:25 22.6 °C 6.8 °C 1015.8 hPa WSW 1.9 km/h 1.9 km/h 36 % 0.0 mm
22:30 22.5 °C 6.7 °C 1015.8 hPa WSW 4.2 km/h 4.2 km/h 36 % 0.0 mm
22:35 22.4 °C 6.6 °C 1015.8 hPa West 3.9 km/h 3.9 km/h 36 % 0.0 mm
22:40 22.3 °C 6.5 °C 1016.8 hPa West 3.7 km/h 3.7 km/h 36 % 0.0 mm
22:45 22.3 °C 6.5 °C 1016.8 hPa West 5.6 km/h 5.6 km/h 36 % 0.0 mm
22:50 22.2 °C 6.4 °C 1016.8 hPa West 5.6 km/h 5.6 km/h 36 % 0.0 mm
22:55 22.1 °C 6.3 °C 1016.8 hPa WSW 5.0 km/h 5.0 km/h 36 % 0.0 mm
23:00 22.0 °C 6.6 °C 1016.8 hPa WSW 3.7 km/h 3.7 km/h 37 % 0.0 mm
23:05 22.0 °C 6.6 °C 1016.8 hPa West 7.4 km/h 7.4 km/h 37 % 0.0 mm
23:10 21.9 °C 6.6 °C 1016.8 hPa WSW 3.9 km/h 3.9 km/h 37 % 0.0 mm
23:15 21.8 °C 6.4 °C 1016.8 hPa SW 4.7 km/h 4.7 km/h 37 % 0.0 mm
23:20 21.7 °C 6.4 °C 1016.8 hPa SW 4.2 km/h 4.2 km/h 37 % 0.0 mm
23:25 21.5 °C 6.6 °C 1015.8 hPa SW 3.7 km/h 3.7 km/h 38 % 0.0 mm
23:30 21.5 °C 6.6 °C 1015.8 hPa WSW 4.2 km/h 4.2 km/h 38 % 0.0 mm
23:35 21.5 °C 6.6 °C 1015.8 hPa SW 3.7 km/h 3.7 km/h 38 % 0.0 mm
23:40 21.4 °C 6.5 °C 1015.8 hPa West 3.7 km/h 3.7 km/h 38 % 0.0 mm
23:45 21.4 °C 6.9 °C 1015.8 hPa West 3.7 km/h 3.7 km/h 39 % 0.0 mm
23:55 21.2 °C 6.7 °C 1016.8 hPa WSW 3.7 km/h 3.7 km/h 39 % 0.0 mm
Meteo Sesrovires
Elogis d' Weather Underground - 3.5 mb

Guio original per  Jim McMurry - jmcmurry@mwt.net Adaptat per a la plantilla per  Wim van der Kuil - Leuven-Template.eu

Trobareu la nostra informacio del temps tambe a:

Weather Underground

AWEKAS